Lyntupy, Belarus

3:05 AM FET on August 31, 2014 (GMT +0300)
Vilnius International | Change Station
CLOSE
Current Station
Airport
Location: Vilnius,
Elevation: 643 ft
Nearby Weather Stations

Elev 643 ft 54.63 °N, 25.29 °E | Updated 15 minutes ago

Overcast
Overcast
57 °F
Feels Like 57 °F
N
5
Wind Variable Wind from East

Today
High -- | Low -- °F
--% Chance of Precip.
Yesterday
High -- | Low -- °F
Precip. -- in
6:18 AM 8:10 PM
Waxing Crescent, 25% visible
Pressure 29.95 in
Visibility 2.5 miles
Clouds Mostly Cloudy 400 ft
Overcast 1200 ft
Dew Point 57 °F
Humidity 100%
Rainfall 0.00 in
Snow Depth Not available.
UV 0 out of 12
Pollen Not available.
Air Quality Not available.
Flu Activity Not available.
METAR EYVI 302350Z 08004KT 4000 BR BKN004 OVC012CB 14/14 Q1014 NOSIG

More Conditions Fewer Conditions

Pressure 29.95 in
Visibility 2.5 miles
Clouds Mostly Cloudy 400 ft
Overcast 1200 ft
Dew Point 57 °F
Humidity 100%
Rainfall 0.00 in
Snow Depth Not available.
UV 0 out of 12
Pollen Not available.
Air Quality Not available.
Flu Activity Not available.
METAR EYVI 302350Z 08004KT 4000 BR BKN004 OVC012CB 14/14 Q1014 NOSIG

More Conditions Fewer Conditions

10-Day Weather Forecast

Almanac

Astronomy

Aug. 31, 2014 Rise Set
Actual Time 6:18 AM FET 8:10 PM FET
Civil Twilight 5:39 AM FET 8:48 PM FET
Nautical Twilight 4:51 AM FET 9:36 PM FET
Astronomical Twilight 3:55 AM FET 10:32 PM FET
Moon 12:45 PM FET 10:10 PM FET
Length of Visible Light 15h 08m
Length of Day
13h 51m
Tomorrow will be 4m 23s shorter.
Waxing Crescent, 25% of the Moon is Illuminated
Aug 30
Waxing Crescent
Sep 2
First Quarter
Sep 8
Full
Sep 15
Last Quarter
Sep 24
New

Yesterday's Extremes

Country Highs Country Lows

Community

WunderPhotos

Upload Photos

1,748,696 photos uploaded!

Nearby

Snow Depth

Not available.

Earthquake Activity

City Distance Mag. Time & Date
No recent earthquake activity has been reported nearby.
Minimum magnitude displayed is 2.5.

Coastal Water Temperatures

Place Temperature
No Stations Reporting

Nearby Weather Stations